| time (UTC) | temp C | wind direction | speed KPH | gust KPH | rain 1hr cm | rain 24hr cm | rain mn cm | humidity % | barometer mb |
| 20260903073603 | 26 | 242 | 0.0 | 0.0 | 0.00 | 0.00 | 0.00 | 82 | 1016.2 |
| 20260903073059 | 26 | 239 | 0.0 | 0.0 | 0.00 | 0.00 | 0.00 | 82 | 1016.2 |
| 20260903072555 | 26 | 244 | 0.0 | 0.0 | 0.00 | 0.00 | 0.00 | 82 | 1016.5 |
| 20260903072051 | 26 | 245 | 3.2 | 4.8 | 0.00 | 0.00 | 0.00 | 82 | 1016.3 |
| 20260903071547 | 26 | 241 | 0.0 | 0.0 | 0.00 | 0.00 | 0.00 | 82 | 1016.1 |
| 20260903071042 | 26 | 243 | 0.0 | 0.0 | 0.00 | 0.00 | 0.00 | 82 | 1016.1 |
| 20260903070542 | 26 | 248 | 0.0 | 0.0 | 0.00 | 0.00 | 0.00 | 82 | 1016.3 |
| 20260903070038 | 26 | 274 | 0.0 | 0.0 | 0.00 | 0.00 | 0.00 | 82 | 1016.1 |
| 20260903065537 | 26 | 256 | 0.0 | 0.0 | 0.00 | 0.00 | 0.00 | 81 | 1016.3 |
| 20260903065036 | 26 | 238 | 1.6 | 3.2 | 0.00 | 0.00 | 0.00 | 81 | 1016.3 |
| 20260903064531 | 26 | 244 | 0.0 | 0.0 | 0.00 | 0.00 | 0.00 | 81 | 1016.3 |
| 20260903064027 | 26 | 238 | 0.0 | 0.0 | 0.00 | 0.00 | 0.00 | 81 | 1016.5 |
| 20260903063522 | 26 | 245 | 0.0 | 0.0 | 0.00 | 0.00 | 0.00 | 82 | 1016.4 |
| 20260903063017 | 26 | 235 | 1.6 | 1.6 | 0.00 | 0.00 | 0.00 | 81 | 1016.3 |
| 20260903062512 | 26 | 250 | 0.0 | 0.0 | 0.00 | 0.00 | 0.00 | 81 | 1016.5 |
| 20260903062008 | 26 | 235 | 0.0 | 0.0 | 0.00 | 0.00 | 0.00 | 81 | 1016.4 |
| 20260903061503 | 26 | 240 | 0.0 | 0.0 | 0.00 | 0.00 | 0.00 | 81 | 1016.8 |
| 20260903060957 | 26 | 229 | 0.0 | 0.0 | 0.00 | 0.00 | 0.00 | 81 | 1016.5 |
| 20260903060452 | 26 | 239 | 0.0 | 0.0 | 0.00 | 0.00 | 0.00 | 81 | 1016.9 |
| 20260903055951 | 26 | 238 | 0.0 | 0.0 | 0.00 | 0.00 | 0.00 | 81 | 1016.6 |
| 20260903055449 | 27 | 246 | 0.0 | 0.0 | 0.00 | 0.00 | 0.00 | 81 | 1016.6 |
| 20260903054948 | 27 | 239 | 0.0 | 0.0 | 0.00 | 0.00 | 0.00 | 80 | 1016.8 |
| 20260903054443 | 27 | 251 | 3.2 | 3.2 | 0.00 | 0.00 | 0.00 | 80 | 1016.8 |
| 20260903053939 | 27 | 253 | 0.0 | 0.0 | 0.00 | 0.00 | 0.00 | 80 | 1016.5 |
| 20260903053439 | 27 | 225 | 0.0 | 0.0 | 0.00 | 0.00 | 0.00 | 80 | 1016.5 |
| 20260903052936 | 27 | 184 | 0.0 | 0.0 | 0.00 | 0.00 | 0.00 | 80 | 1016.5 |
| 20260903052431 | 27 | 241 | 0.0 | 1.6 | 0.00 | 0.00 | 0.00 | 80 | 1016.4 |
| 20260903051927 | 27 | 230 | 0.0 | 0.0 | 0.00 | 0.00 | 0.00 | 79 | 1016.2 |
| 20260903051422 | 27 | 238 | 1.6 | 1.6 | 0.00 | 0.00 | 0.00 | 79 | 1016.3 |
| 20260903050918 | 27 | 242 | 0.0 | 0.0 | 0.00 | 0.00 | 0.00 | 79 | 1016.3 |
| 20260903050416 | 27 | 246 | 0.0 | 0.0 | 0.00 | 0.00 | 0.00 | 79 | 1016.1 |
| 20260903045911 | 27 | 266 | 4.8 | 8.0 | 0.00 | 0.00 | 0.00 | 79 | 1016.4 |
| 20260903045406 | 27 | 235 | 0.0 | 0.0 | 0.00 | 0.00 | 0.00 | 78 | 1016.3 |
| 20260903044858 | 27 | 255 | 1.6 | 1.6 | 0.00 | 0.00 | 0.00 | 78 | 1016.3 |
| 20260903044358 | 27 | 161 | 1.6 | 3.2 | 0.00 | 0.00 | 0.00 | 78 | 1016.1 |
| 20260903043855 | 27 | 260 | 0.0 | 0.0 | 0.00 | 0.00 | 0.00 | 78 | 1016.2 |
| 20260903043349 | 27 | 280 | 4.8 | 4.8 | 0.00 | 0.00 | 0.00 | 77 | 1016.2 |
| 20260903042848 | 27 | 239 | 1.6 | 3.2 | 0.00 | 0.00 | 0.00 | 77 | 1016.0 |
| 20260903042343 | 27 | 244 | 3.2 | 3.2 | 0.00 | 0.00 | 0.00 | 77 | 1015.9 |
| 20260903041839 | 27 | 251 | 0.0 | 0.0 | 0.00 | 0.00 | 0.00 | 77 | 1016.0 |
| 20260903041335 | 27 | 233 | 0.0 | 1.6 | 0.00 | 0.00 | 0.00 | 77 | 1016.0 |
| 20260903040831 | 27 | 256 | 1.6 | 3.2 | 0.00 | 0.00 | 0.00 | 78 | 1016.0 |
| 20260903040330 | 27 | 241 | 0.0 | 0.0 | 0.00 | 0.00 | 0.00 | 78 | 1015.8 |
| 20260903035826 | 27 | 241 | 1.6 | 3.2 | 0.00 | 0.00 | 0.00 | 78 | 1015.7 |
| 20260903035321 | 27 | 250 | 1.6 | 1.6 | 0.00 | 0.00 | 0.00 | 78 | 1015.7 |
| 20260903034816 | 27 | 223 | 1.6 | 1.6 | 0.00 | 0.00 | 0.00 | 78 | 1015.6 |
| 20260903034311 | 27 | 244 | 0.0 | 0.0 | 0.00 | 0.00 | 0.00 | 78 | 1015.5 |
| 20260903033806 | 27 | 267 | 0.0 | 1.6 | 0.00 | 0.00 | 0.00 | 79 | 1015.6 |
| 20260903033301 | 27 | 195 | 0.0 | 1.6 | 0.00 | 0.00 | 0.00 | 79 | 1015.6 |
| 20260903032755 | 27 | 227 | 4.8 | 8.0 | 0.00 | 0.00 | 0.00 | 79 | 1015.6 |
| 20260903032252 | 27 | 226 | 0.0 | 0.0 | 0.00 | 0.00 | 0.00 | 80 | 1015.8 |
| 20260903031747 | 27 | 234 | 0.0 | 0.0 | 0.00 | 0.00 | 0.00 | 80 | 1015.8 |
| 20260903031241 | 27 | 216 | 0.0 | 0.0 | 0.00 | 0.00 | 0.00 | 79 | 1016.0 |
| 20260903030737 | 27 | 235 | 0.0 | 0.0 | 0.00 | 0.00 | 0.00 | 79 | 1016.1 |
| 20260903030233 | 27 | 233 | 0.0 | 0.0 | 0.00 | 0.00 | 0.00 | 79 | 1016.1 |
| 20260903025728 | 27 | 251 | 0.0 | 1.6 | 0.00 | 0.00 | 0.00 | 80 | 1016.2 |
| 20260903025224 | 27 | 238 | 0.0 | 0.0 | 0.00 | 0.00 | 0.00 | 80 | 1016.3 |
| 20260903024724 | 27 | 242 | 0.0 | 0.0 | 0.00 | 0.00 | 0.00 | 80 | 1016.1 |
| 20260903024223 | 27 | 248 | 0.0 | 0.0 | 0.00 | 0.00 | 0.00 | 80 | 1016.5 |
| 20260903023719 | 27 | 247 | 0.0 | 0.0 | 0.00 | 0.00 | 0.00 | 80 | 1016.5 |
| 20260903023214 | 27 | 237 | 0.0 | 0.0 | 0.00 | 0.00 | 0.00 | 80 | 1016.3 |
| 20260903022714 | 27 | 229 | 0.0 | 0.0 | 0.00 | 0.00 | 0.00 | 80 | 1016.5 |
| 20260903022212 | 27 | 232 | 0.0 | 0.0 | 0.00 | 0.00 | 0.00 | 79 | 1016.4 |
| 20260903021707 | 27 | 250 | 0.0 | 0.0 | 0.00 | 0.00 | 0.00 | 79 | 1016.5 |
| 20260903021202 | 27 | 237 | 0.0 | 0.0 | 0.00 | 0.00 | 0.00 | 79 | 1016.8 |
| 20260903020657 | 27 | 265 | 0.0 | 0.0 | 0.00 | 0.00 | 0.00 | 79 | 1016.6 |
| 20260903020157 | 27 | 236 | 0.0 | 0.0 | 0.00 | 0.00 | 0.00 | 79 | 1016.4 |
| 20260903015652 | 27 | 242 | 0.0 | 0.0 | 0.00 | 0.00 | 0.00 | 79 | 1016.6 |
| 20260903015148 | 27 | 232 | 0.0 | 0.0 | 0.00 | 0.00 | 0.00 | 79 | 1016.8 |
| 20260903014648 | 27 | 228 | 1.6 | 1.6 | 0.00 | 0.00 | 0.00 | 78 | 1016.6 |
| 20260903014142 | 27 | 223 | 0.0 | 0.0 | 0.00 | 0.00 | 0.00 | 79 | 1016.9 |
| 20260903013637 | 27 | 226 | 0.0 | 0.0 | 0.00 | 0.00 | 0.00 | 79 | 1016.8 |
| 20260903013137 | 27 | 206 | 0.0 | 0.0 | 0.00 | 0.00 | 0.00 | 79 | 1016.6 |
| 20260903012636 | 27 | 244 | 0.0 | 0.0 | 0.00 | 0.00 | 0.00 | 79 | 1016.4 |
| 20260903012135 | 27 | 236 | 0.0 | 0.0 | 0.00 | 0.00 | 0.00 | 78 | 1016.6 |
| 20260903011634 | 27 | 240 | 0.0 | 0.0 | 0.00 | 0.00 | 0.00 | 78 | 1016.6 |
| 20260903011129 | 27 | 234 | 0.0 | 0.0 | 0.00 | 0.00 | 0.00 | 77 | 1016.4 |
| 20260903010624 | 27 | 242 | 0.0 | 0.0 | 0.00 | 0.00 | 0.00 | 77 | 1016.5 |
| 20260903010123 | 27 | 232 | 0.0 | 0.0 | 0.00 | 0.00 | 0.00 | 77 | 1016.5 |
| 20260903005618 | 27 | 236 | 0.0 | 0.0 | 0.00 | 0.00 | 0.00 | 77 | 1016.4 |
| 20260903005114 | 27 | 255 | 0.0 | 0.0 | 0.00 | 0.00 | 0.00 | 77 | 1016.4 |
| 20260903004614 | 27 | 225 | 0.0 | 0.0 | 0.00 | 0.00 | 0.00 | 76 | 1016.4 |
| 20260903004109 | 27 | 236 | 0.0 | 0.0 | 0.00 | 0.00 | 0.00 | 76 | 1016.4 |
| 20260903003604 | 27 | 230 | 0.0 | 0.0 | 0.00 | 0.00 | 0.00 | 76 | 1016.1 |
| 20260903003059 | 28 | 241 | 0.0 | 0.0 | 0.00 | 0.00 | 0.00 | 76 | 1015.9 |
| 20260903002554 | 28 | 236 | 0.0 | 0.0 | 0.00 | 0.00 | 0.00 | 76 | 1016.0 |
| 20260903002049 | 28 | 235 | 0.0 | 0.0 | 0.00 | 0.00 | 0.00 | 76 | 1016.1 |
| 20260903001549 | 28 | 240 | 0.0 | 0.0 | 0.00 | 0.00 | 0.00 | 76 | 1016.0 |
| 20260903001043 | 28 | 241 | 0.0 | 0.0 | 0.00 | 0.00 | 0.00 | 75 | 1016.2 |
| 20260903000538 | 28 | 234 | 0.0 | 0.0 | 0.00 | 0.00 | 0.00 | 74 | 1016.4 |
| 20260903000032 | 28 | 245 | 0.0 | 0.0 | 0.00 | 0.00 | 0.00 | 74 | 1016.5 |
| 20260902235532 | 29 | 239 | 0.0 | 0.0 | 0.00 | 0.00 | 0.00 | 75 | 1016.6 |
| 20260902235027 | 29 | 246 | 0.0 | 1.6 | 0.00 | 0.00 | 0.00 | 73 | 1016.6 |
| 20260902234527 | 29 | 231 | 0.0 | 0.0 | 0.00 | 0.00 | 0.00 | 73 | 1016.5 |
| 20260902234025 | 30 | 235 | 0.0 | 0.0 | 0.00 | 0.00 | 0.00 | 73 | 1016.6 |
| 20260902233520 | 30 | 239 | 0.0 | 0.0 | 0.00 | 0.00 | 0.00 | 73 | 1016.3 |
| 20260902233015 | 30 | 229 | 0.0 | 1.6 | 0.00 | 0.00 | 0.00 | 73 | 1016.6 |
| 20260902232514 | 30 | 224 | 0.0 | 0.0 | 0.00 | 0.00 | 0.00 | 73 | 1016.4 |
| 20260902232003 | 30 | 241 | 1.6 | 1.6 | 0.00 | 0.00 | 0.00 | 72 | 1016.6 |
| 20260902231457 | 30 | 239 | 0.0 | 0.0 | 0.00 | 0.00 | 0.00 | 71 | 1016.6 |
| 20260902230952 | 30 | 230 | 0.0 | 0.0 | 0.00 | 0.00 | 0.00 | 71 | 1016.5 |
| 20260902230451 | 30 | 224 | 1.6 | 1.6 | 0.00 | 0.00 | 0.00 | 70 | 1016.9 |
| 20260902225951 | 31 | 238 | 1.6 | 3.2 | 0.00 | 0.00 | 0.00 | 70 | 1016.8 |
| 20260902225446 | 31 | 226 | 3.2 | 4.8 | 0.00 | 0.00 | 0.00 | 69 | 1016.6 |
| 20260902224945 | 31 | 201 | 4.8 | 8.0 | 0.00 | 0.00 | 0.00 | 68 | 1016.5 |
| 20260902224444 | 31 | 235 | 4.8 | 9.7 | 0.00 | 0.00 | 0.00 | 67 | 1016.6 |
| 20260902223942 | 32 | 229 | 3.2 | 3.2 | 0.00 | 0.00 | 0.00 | 66 | 1016.2 |
| 20260902223437 | 32 | 237 | 0.0 | 1.6 | 0.00 | 0.00 | 0.00 | 66 | 1016.2 |
| 20260902222936 | 32 | 219 | 1.6 | 3.2 | 0.00 | 0.00 | 0.00 | 66 | 1016.1 |
| 20260902222435 | 31 | 252 | 1.6 | 3.2 | 0.00 | 0.00 | 0.00 | 66 | 1015.8 |
| 20260902221934 | 32 | 225 | 3.2 | 4.8 | 0.00 | 0.00 | 0.00 | 64 | 1015.9 |
| 20260902221433 | 32 | 233 | 4.8 | 8.0 | 0.00 | 0.00 | 0.00 | 64 | 1015.8 |
| 20260902220929 | 32 | 215 | 3.2 | 8.0 | 0.00 | 0.00 | 0.00 | 63 | 1016.1 |
| 20260902220423 | 32 | 241 | 0.0 | 0.0 | 0.00 | 0.00 | 0.00 | 64 | 1016.0 |
| 20260902215918 | 32 | 231 | 1.6 | 3.2 | 0.00 | 0.00 | 0.00 | 64 | 1015.8 |
| 20260902215414 | 32 | 239 | 0.0 | 0.0 | 0.00 | 0.00 | 0.00 | 63 | 1016.2 |
| 20260902214910 | 32 | 246 | 3.2 | 4.8 | 0.00 | 0.00 | 0.00 | 63 | 1016.0 |
| 20260902214408 | 32 | 236 | 1.6 | 3.2 | 0.00 | 0.00 | 0.00 | 63 | 1016.0 |
| 20260902213903 | 32 | 233 | 0.0 | 1.6 | 0.00 | 0.00 | 0.00 | 63 | 1016.1 |
| 20260902213400 | 32 | 173 | 4.8 | 8.0 | 0.00 | 0.00 | 0.00 | 63 | 1016.1 |
| 20260902212858 | 32 | 254 | 1.6 | 3.2 | 0.00 | 0.00 | 0.00 | 62 | 1016.3 |
| 20260902212354 | 33 | 230 | 4.8 | 4.8 | 0.00 | 0.00 | 0.00 | 63 | 1016.1 |
| 20260902211851 | 32 | 232 | 6.4 | 8.0 | 0.00 | 0.00 | 0.00 | 64 | 1016.3 |
| 20260902211346 | 32 | 237 | 0.0 | 0.0 | 0.00 | 0.00 | 0.00 | 65 | 1016.4 |
| 20260902210841 | 32 | 224 | 3.2 | 4.8 | 0.00 | 0.00 | 0.00 | 63 | 1016.3 |
| 20260902210341 | 33 | 256 | 1.6 | 1.6 | 0.00 | 0.00 | 0.00 | 62 | 1016.6 |
| 20260902205839 | 33 | 253 | 3.2 | 3.2 | 0.00 | 0.00 | 0.00 | 62 | 1016.8 |
| 20260902205334 | 33 | 219 | 1.6 | 3.2 | 0.00 | 0.00 | 0.00 | 60 | 1017.0 |
| 20260902204830 | 33 | 262 | 4.8 | 8.0 | 0.00 | 0.00 | 0.00 | 60 | 1017.1 |
| 20260902204324 | 33 | 226 | 3.2 | 4.8 | 0.00 | 0.00 | 0.00 | 61 | 1017.1 |
| 20260902203820 | 33 | 227 | 1.6 | 1.6 | 0.00 | 0.00 | 0.00 | 62 | 1017.1 |
| 20260902203315 | 33 | 233 | 3.2 | 3.2 | 0.00 | 0.00 | 0.00 | 60 | 1017.0 |
| 20260902202814 | 33 | 247 | 4.8 | 8.0 | 0.00 | 0.00 | 0.00 | 62 | 1017.3 |
| 20260902202310 | 33 | 234 | 1.6 | 1.6 | 0.00 | 0.00 | 0.00 | 63 | 1017.1 |
| 20260902201806 | 33 | 307 | 8.0 | 11.3 | 0.00 | 0.00 | 0.00 | 62 | 1017.3 |
| 20260902201301 | 33 | 244 | 3.2 | 3.2 | 0.00 | 0.00 | 0.00 | 63 | 1017.4 |
| 20260902200756 | 33 | 255 | 6.4 | 8.0 | 0.00 | 0.00 | 0.00 | 64 | 1017.5 |
| 20260902200251 | 33 | 193 | 3.2 | 4.8 | 0.00 | 0.00 | 0.00 | 62 | 1017.7 |
| 20260902195746 | 33 | 242 | 1.6 | 3.2 | 0.00 | 0.00 | 0.00 | 62 | 1017.3 |
| 20260902195245 | 33 | 251 | 0.0 | 0.0 | 0.00 | 0.00 | 0.00 | 64 | 1017.2 |
| 20260902194740 | 33 | 241 | 0.0 | 0.0 | 0.00 | 0.00 | 0.00 | 64 | 1017.4 |
| 20260902194235 | 33 | 239 | 0.0 | 0.0 | 0.00 | 0.00 | 0.00 | 65 | 1017.8 |
| 20260902193731 | 33 | 217 | 1.6 | 1.6 | 0.00 | 0.00 | 0.00 | 65 | 1017.9 |
| 20260902193226 | 33 | 279 | 3.2 | 4.8 | 0.00 | 0.00 | 0.00 | 66 | 1017.8 |
| 20260902192724 | 33 | 236 | 0.0 | 1.6 | 0.00 | 0.00 | 0.00 | 65 | 1017.9 |
| 20260902192219 | 33 | 199 | 4.8 | 8.0 | 0.00 | 0.00 | 0.00 | 65 | 1018.1 |
| 20260902191719 | 34 | 247 | 0.0 | 1.6 | 0.00 | 0.00 | 0.00 | 64 | 1017.9 |
| 20260902191213 | 33 | 229 | 1.6 | 3.2 | 0.00 | 0.00 | 0.00 | 65 | 1018.1 |
| 20260902190708 | 33 | 231 | 1.6 | 3.2 | 0.00 | 0.00 | 0.00 | 65 | 1018.1 |
| 20260902190203 | 32 | 248 | 0.0 | 0.0 | 0.00 | 0.00 | 0.00 | 67 | 1018.1 |
| 20260902185659 | 32 | 228 | 4.8 | 8.0 | 0.00 | 0.00 | 0.00 | 66 | 1018.3 |
| 20260902185155 | 33 | 257 | 4.8 | 4.8 | 0.00 | 0.00 | 0.00 | 65 | 1018.1 |
| 20260902184649 | 32 | 233 | 1.6 | 3.2 | 0.00 | 0.00 | 0.00 | 66 | 1018.2 |
| 20260902184145 | 32 | 215 | 0.0 | 1.6 | 0.00 | 0.00 | 0.00 | 66 | 1018.0 |
| 20260902183641 | 32 | 234 | 0.0 | 0.0 | 0.00 | 0.00 | 0.00 | 67 | 1018.1 |
| 20260902183137 | 33 | 205 | 0.0 | 0.0 | 0.00 | 0.00 | 0.00 | 65 | 1018.0 |
| 20260902182633 | 33 | 235 | 0.0 | 0.0 | 0.00 | 0.00 | 0.00 | 65 | 1017.6 |
| 20260902182129 | 33 | 246 | 1.6 | 1.6 | 0.00 | 0.00 | 0.00 | 65 | 1017.5 |
| 20260902181626 | 33 | 221 | 3.2 | 4.8 | 0.00 | 0.00 | 0.00 | 65 | 1017.8 |
| 20260902181125 | 33 | 202 | 0.0 | 0.0 | 0.00 | 0.00 | 0.00 | 64 | 1017.9 |
| 20260902180624 | 32 | 253 | 0.0 | 0.0 | 0.00 | 0.00 | 0.00 | 65 | 1017.6 |
| 20260902180121 | 32 | 211 | 0.0 | 0.0 | 0.00 | 0.00 | 0.00 | 65 | 1017.9 |
| 20260902175620 | 32 | 239 | 0.0 | 1.6 | 0.00 | 0.00 | 0.00 | 64 | 1017.7 |
| 20260902175116 | 32 | 228 | 0.0 | 1.6 | 0.00 | 0.00 | 0.00 | 66 | 1017.7 |
| 20260902174612 | 32 | 242 | 1.6 | 1.6 | 0.00 | 0.00 | 0.00 | 66 | 1017.9 |
| 20260902174107 | 32 | 220 | 3.2 | 4.8 | 0.00 | 0.00 | 0.00 | 65 | 1017.9 |
| 20260902173602 | 32 | 236 | 4.8 | 8.0 | 0.00 | 0.00 | 0.00 | 65 | 1018.3 |
| 20260902173057 | 32 | 239 | 3.2 | 3.2 | 0.00 | 0.00 | 0.00 | 64 | 1018.4 |
| 20260902172551 | 32 | 246 | 3.2 | 4.8 | 0.00 | 0.00 | 0.00 | 66 | 1018.5 |
| 20260902172046 | 32 | 220 | 0.0 | 1.6 | 0.00 | 0.00 | 0.00 | 66 | 1018.7 |
| 20260902171542 | 32 | 241 | 3.2 | 3.2 | 0.00 | 0.00 | 0.00 | 66 | 1018.6 |
| 20260902171037 | 32 | 234 | 1.6 | 1.6 | 0.00 | 0.00 | 0.00 | 66 | 1018.4 |
| 20260902170532 | 32 | 266 | 3.2 | 3.2 | 0.00 | 0.00 | 0.00 | 66 | 1018.6 |
| 20260902170028 | 32 | 246 | 3.2 | 8.0 | 0.00 | 0.00 | 0.00 | 66 | 1018.3 |
| 20260902165527 | 32 | 240 | 0.0 | 1.6 | 0.00 | 0.00 | 0.00 | 66 | 1018.4 |
| 20260902165022 | 32 | 234 | 0.0 | 1.6 | 0.00 | 0.00 | 0.00 | 67 | 1018.6 |
| 20260902164517 | 31 | 290 | 1.6 | 3.2 | 0.00 | 0.00 | 0.00 | 66 | 1018.5 |
| 20260902164016 | 32 | 228 | 0.0 | 0.0 | 0.00 | 0.00 | 0.00 | 65 | 1018.5 |
| 20260902163512 | 32 | 204 | 3.2 | 3.2 | 0.00 | 0.00 | 0.00 | 62 | 1018.7 |
| 20260902163010 | 32 | 229 | 1.6 | 3.2 | 0.00 | 0.00 | 0.00 | 65 | 1018.6 |
| 20260902162510 | 32 | 229 | 0.0 | 0.0 | 0.00 | 0.00 | 0.00 | 66 | 1018.8 |
| 20260902162005 | 32 | 229 | 1.6 | 3.2 | 0.00 | 0.00 | 0.00 | 67 | 1018.7 |
| 20260902161500 | 32 | 243 | 3.2 | 3.2 | 0.00 | 0.00 | 0.00 | 67 | 1018.6 |
| 20260902160956 | 32 | 242 | 1.6 | 3.2 | 0.00 | 0.00 | 0.00 | 66 | 1018.6 |
| 20260902160451 | 31 | 233 | 0.0 | 1.6 | 0.00 | 0.00 | 0.00 | 66 | 1018.4 |
| 20260902155949 | 31 | 235 | 0.0 | 0.0 | 0.00 | 0.00 | 0.00 | 68 | 1018.5 |
| 20260902155444 | 32 | 223 | 0.0 | 1.6 | 0.00 | 0.00 | 0.00 | 67 | 1018.5 |
| 20260902154938 | 31 | 218 | 0.0 | 0.0 | 0.00 | 0.00 | 0.00 | 67 | 1018.6 |
| 20260902154434 | 31 | 242 | 1.6 | 3.2 | 0.00 | 0.00 | 0.00 | 66 | 1018.6 |
| 20260902153933 | 31 | 183 | 3.2 | 4.8 | 0.00 | 0.00 | 0.00 | 66 | 1018.6 |
| 20260902153432 | 31 | 221 | 4.8 | 4.8 | 0.00 | 0.00 | 0.00 | 67 | 1018.5 |
| 20260902152928 | 31 | 250 | 4.8 | 4.8 | 0.00 | 0.00 | 0.00 | 67 | 1018.6 |
| 20260902152424 | 31 | 247 | 3.2 | 3.2 | 0.00 | 0.00 | 0.00 | 68 | 1018.6 |
| 20260902151919 | 31 | 250 | 1.6 | 3.2 | 0.00 | 0.00 | 0.00 | 68 | 1018.8 |
| 20260902151415 | 31 | 248 | 1.6 | 3.2 | 0.00 | 0.00 | 0.00 | 69 | 1018.4 |
| 20260902150909 | 30 | 262 | 6.4 | 9.7 | 0.00 | 0.00 | 0.00 | 69 | 1018.6 |
| 20260902150405 | 30 | 243 | 3.2 | 4.8 | 0.00 | 0.00 | 0.00 | 70 | 1018.9 |
| 20260902145904 | 30 | 231 | 0.0 | 0.0 | 0.00 | 0.00 | 0.00 | 71 | 1018.5 |
| 20260902145400 | 30 | 241 | 1.6 | 3.2 | 0.00 | 0.00 | 0.00 | 72 | 1018.7 |
| 20260902144855 | 30 | 216 | 0.0 | 1.6 | 0.00 | 0.00 | 0.00 | 72 | 1018.8 |
| 20260902144351 | 30 | 236 | 0.0 | 1.6 | 0.00 | 0.00 | 0.00 | 70 | 1018.7 |
| 20260902143850 | 30 | 226 | 0.0 | 0.0 | 0.00 | 0.00 | 0.00 | 72 | 1018.7 |
| 20260902143346 | 30 | 245 | 1.6 | 3.2 | 0.00 | 0.00 | 0.00 | 73 | 1018.3 |
| 20260902142842 | 30 | 234 | 1.6 | 1.6 | 0.00 | 0.00 | 0.00 | 72 | 1018.7 |
| 20260902142337 | 29 | 257 | 3.2 | 3.2 | 0.00 | 0.00 | 0.00 | 74 | 1018.5 |
| 20260902141832 | 28 | 230 | 1.6 | 1.6 | 0.00 | 0.00 | 0.00 | 75 | 1018.5 |
| 20260902141328 | 28 | 261 | 4.8 | 8.0 | 0.00 | 0.00 | 0.00 | 75 | 1018.5 |
| 20260902140827 | 28 | 235 | 0.0 | 0.0 | 0.00 | 0.00 | 0.00 | 77 | 1018.6 |
| 20260902140323 | 28 | 253 | 1.6 | 1.6 | 0.00 | 0.00 | 0.00 | 76 | 1018.5 |
| 20260902135821 | 28 | 240 | 0.0 | 0.0 | 0.00 | 0.00 | 0.00 | 77 | 1018.7 |
| 20260902135318 | 27 | 245 | 0.0 | 0.0 | 0.00 | 0.00 | 0.00 | 79 | 1018.5 |
| 20260902134817 | 27 | 233 | 0.0 | 0.0 | 0.00 | 0.00 | 0.00 | 79 | 1018.5 |
| 20260902134313 | 27 | 233 | 0.0 | 0.0 | 0.00 | 0.00 | 0.00 | 80 | 1018.5 |
| 20260902133808 | 26 | 236 | 1.6 | 1.6 | 0.00 | 0.00 | 0.00 | 81 | 1018.6 |
| 20260902133307 | 26 | 232 | 0.0 | 0.0 | 0.00 | 0.00 | 0.00 | 82 | 1018.6 |
| 20260902132803 | 26 | 248 | 0.0 | 0.0 | 0.00 | 0.00 | 0.00 | 82 | 1018.6 |
| 20260902132258 | 26 | 221 | 1.6 | 1.6 | 0.00 | 0.00 | 0.00 | 82 | 1018.7 |
| 20260902131753 | 26 | 239 | 0.0 | 0.0 | 0.00 | 0.00 | 0.00 | 82 | 1018.8 |
| 20260902131250 | 26 | 234 | 0.0 | 0.0 | 0.00 | 0.00 | 0.00 | 82 | 1018.6 |
| 20260902130749 | 25 | 239 | 0.0 | 0.0 | 0.00 | 0.00 | 0.00 | 83 | 1018.4 |
| 20260902130245 | 25 | 238 | 0.0 | 0.0 | 0.00 | 0.00 | 0.00 | 84 | 1018.6 |
| 20260902125740 | 25 | 232 | 0.0 | 0.0 | 0.00 | 0.00 | 0.00 | 84 | 1018.5 |
| 20260902125236 | 25 | 235 | 0.0 | 0.0 | 0.00 | 0.00 | 0.00 | 84 | 1018.5 |
| 20260902124732 | 25 | 232 | 0.0 | 0.0 | 0.00 | 0.00 | 0.00 | 83 | 1018.5 |
| 20260902124227 | 26 | 245 | 0.0 | 0.0 | 0.00 | 0.00 | 0.00 | 82 | 1018.5 |
| 20260902123717 | 26 | 237 | 0.0 | 0.0 | 0.00 | 0.00 | 0.00 | 82 | 1018.3 |
| 20260902123213 | 25 | 234 | 0.0 | 0.0 | 0.00 | 0.00 | 0.00 | 84 | 1018.3 |
| 20260902122712 | 25 | 231 | 0.0 | 0.0 | 0.00 | 0.00 | 0.00 | 85 | 1018.3 |
| 20260902122207 | 24 | 240 | 0.0 | 0.0 | 0.00 | 0.00 | 0.00 | 86 | 1018.3 |
| 20260902121702 | 24 | 237 | 0.0 | 0.0 | 0.00 | 0.00 | 0.00 | 86 | 1018.5 |
| 20260902121156 | 24 | 236 | 0.0 | 0.0 | 0.00 | 0.00 | 0.00 | 87 | 1018.5 |
| 20260902120653 | 23 | 240 | 0.0 | 0.0 | 0.00 | 0.00 | 0.00 | 87 | 1018.4 |
| 20260902120149 | 23 | 241 | 0.0 | 0.0 | 0.00 | 0.00 | 0.00 | 87 | 1018.6 |
| 20260902115649 | 23 | 238 | 0.0 | 0.0 | 0.00 | 0.00 | 0.00 | 87 | 1018.2 |
| 20260902115145 | 23 | 240 | 0.0 | 0.0 | 0.00 | 0.00 | 0.00 | 88 | 1018.2 |
| 20260902114641 | 23 | 242 | 0.0 | 0.0 | 0.00 | 0.00 | 0.00 | 88 | 1018.3 |
| 20260902114136 | 23 | 207 | 0.0 | 0.0 | 0.00 | 0.00 | 0.00 | 88 | 1018.1 |
| 20260902113631 | 23 | 242 | 0.0 | 0.0 | 0.00 | 0.00 | 0.00 | 89 | 1018.1 |
| 20260902113126 | 23 | 242 | 0.0 | 0.0 | 0.00 | 0.00 | 0.00 | 89 | 1018.1 |
| 20260902112621 | 23 | 243 | 0.0 | 0.0 | 0.00 | 0.00 | 0.00 | 89 | 1018.1 |
| 20260902112118 | 23 | 243 | 0.0 | 0.0 | 0.00 | 0.00 | 0.00 | 89 | 1017.9 |
| 20260902111614 | 23 | 236 | 0.0 | 0.0 | 0.00 | 0.00 | 0.00 | 88 | 1017.7 |
| 20260902111109 | 23 | 239 | 0.0 | 0.0 | 0.00 | 0.00 | 0.00 | 88 | 1017.9 |
| 20260902110605 | 23 | 248 | 0.0 | 0.0 | 0.00 | 0.00 | 0.00 | 88 | 1017.9 |
| 20260902110100 | 23 | 243 | 0.0 | 0.0 | 0.00 | 0.00 | 0.00 | 88 | 1017.8 |
| 20260902105555 | 23 | 242 | 0.0 | 0.0 | 0.00 | 0.00 | 0.00 | 88 | 1017.6 |
| 20260902105055 | 23 | 238 | 0.0 | 0.0 | 0.00 | 0.00 | 0.00 | 89 | 1017.8 |
| 20260902104551 | 23 | 236 | 0.0 | 0.0 | 0.00 | 0.00 | 0.00 | 89 | 1017.4 |
| 20260902104045 | 23 | 241 | 0.0 | 0.0 | 0.00 | 0.00 | 0.00 | 89 | 1017.8 |
| 20260902103540 | 23 | 241 | 0.0 | 0.0 | 0.00 | 0.00 | 0.00 | 89 | 1017.5 |
| 20260902103035 | 23 | 243 | 0.0 | 0.0 | 0.00 | 0.00 | 0.00 | 89 | 1017.7 |
| 20260902102532 | 23 | 241 | 0.0 | 0.0 | 0.00 | 0.00 | 0.00 | 89 | 1017.7 |
| 20260902102029 | 23 | 242 | 0.0 | 0.0 | 0.00 | 0.00 | 0.00 | 89 | 1017.6 |
| 20260902101524 | 23 | 238 | 0.0 | 0.0 | 0.00 | 0.00 | 0.00 | 89 | 1017.6 |
| 20260902101022 | 23 | 239 | 0.0 | 0.0 | 0.00 | 0.00 | 0.00 | 89 | 1017.6 |
| 20260902100517 | 23 | 239 | 0.0 | 0.0 | 0.00 | 0.00 | 0.00 | 89 | 1017.7 |
| 20260902100012 | 23 | 242 | 0.0 | 0.0 | 0.00 | 0.00 | 0.00 | 89 | 1017.8 |
| 20260902095511 | 23 | 236 | 0.0 | 0.0 | 0.00 | 0.00 | 0.00 | 89 | 1017.8 |
| 20260902095010 | 23 | 237 | 0.0 | 0.0 | 0.00 | 0.00 | 0.00 | 89 | 1017.7 |
| 20260902094506 | 23 | 236 | 0.0 | 0.0 | 0.00 | 0.00 | 0.00 | 88 | 1017.8 |
| 20260902094001 | 23 | 234 | 0.0 | 0.0 | 0.00 | 0.00 | 0.00 | 88 | 1017.7 |
| 20260902093456 | 23 | 241 | 0.0 | 0.0 | 0.00 | 0.00 | 0.00 | 88 | 1017.8 |
| 20260902092955 | 23 | 245 | 0.0 | 0.0 | 0.00 | 0.00 | 0.00 | 88 | 1017.7 |
| 20260902092451 | 23 | 241 | 0.0 | 0.0 | 0.00 | 0.00 | 0.00 | 88 | 1017.8 |
| 20260902091950 | 23 | 237 | 0.0 | 0.0 | 0.00 | 0.00 | 0.00 | 88 | 1017.8 |
| 20260902091446 | 24 | 235 | 0.0 | 0.0 | 0.00 | 0.00 | 0.00 | 88 | 1017.9 |
| 20260902090942 | 23 | 239 | 0.0 | 0.0 | 0.00 | 0.00 | 0.00 | 88 | 1017.6 |
| 20260902090437 | 23 | 240 | 0.0 | 0.0 | 0.00 | 0.00 | 0.00 | 88 | 1017.6 |
| 20260902085936 | 23 | 245 | 0.0 | 0.0 | 0.00 | 0.00 | 0.00 | 89 | 1017.6 |
| 20260902085431 | 23 | 247 | 0.0 | 0.0 | 0.00 | 0.00 | 0.00 | 89 | 1017.5 |
| 20260902084927 | 23 | 242 | 0.0 | 0.0 | 0.00 | 0.00 | 0.00 | 89 | 1017.5 |
| 20260902084424 | 23 | 227 | 0.0 | 0.0 | 0.00 | 0.00 | 0.00 | 89 | 1017.6 |
| 20260902083919 | 23 | 237 | 0.0 | 0.0 | 0.00 | 0.00 | 0.00 | 89 | 1017.6 |
| 20260902083419 | 23 | 237 | 0.0 | 0.0 | 0.00 | 0.00 | 0.00 | 89 | 1017.7 |
| 20260902082913 | 23 | 236 | 0.0 | 0.0 | 0.00 | 0.00 | 0.00 | 88 | 1017.6 |
| 20260902082409 | 23 | 236 | 0.0 | 0.0 | 0.00 | 0.00 | 0.00 | 88 | 1017.8 |
| 20260902081906 | 23 | 239 | 0.0 | 0.0 | 0.00 | 0.00 | 0.00 | 88 | 1017.7 |
| 20260902081402 | 23 | 227 | 0.0 | 0.0 | 0.00 | 0.00 | 0.00 | 88 | 1017.6 |
| 20260902080856 | 23 | 235 | 0.0 | 0.0 | 0.00 | 0.00 | 0.00 | 87 | 1017.6 |
| 20260902080352 | 23 | 235 | 0.0 | 0.0 | 0.00 | 0.00 | 0.00 | 87 | 1017.6 |
| 20260902075852 | 23 | 235 | 0.0 | 0.0 | 0.00 | 0.00 | 0.00 | 87 | 1017.7 |
| 20260902075348 | 23 | 222 | 0.0 | 0.0 | 0.00 | 0.00 | 0.00 | 88 | 1017.6 |
| 20260902074843 | 23 | 237 | 0.0 | 0.0 | 0.00 | 0.00 | 0.00 | 88 | 1017.6 |
| 20260902074339 | 23 | 238 | 0.0 | 0.0 | 0.00 | 0.00 | 0.00 | 88 | 1017.5 |
| 20260902073834 | 23 | 235 | 0.0 | 0.0 | 0.00 | 0.00 | 0.00 | 89 | 1017.5 |